sensor_id;sensor_type;location;lat;lon;timestamp;pressure;altitude;pressure_sealevel;temperature;humidity
58072;BME280;60383;46.626;18.866;2023-06-24T00:01:58;100571.69;;;20.31;86.07
58072;BME280;60383;46.626;18.866;2023-06-24T00:04:24;100576.44;;;20.17;87.39
58072;BME280;60383;46.626;18.866;2023-06-24T00:06:49;100568.25;;;20.29;85.81
58072;BME280;60383;46.626;18.866;2023-06-24T00:09:17;100565.34;;;20.17;86.05
58072;BME280;60383;46.626;18.866;2023-06-24T00:11:43;100555.06;;;20.18;87.34
58072;BME280;60383;46.626;18.866;2023-06-24T00:14:08;100544.16;;;20.09;85.07
58072;BME280;60383;46.626;18.866;2023-06-24T00:16:34;100564.44;;;20.23;85.67
58072;BME280;60383;46.626;18.866;2023-06-24T00:19:02;100566.41;;;20.09;85.31
58072;BME280;60383;46.626;18.866;2023-06-24T00:21:28;100570.03;;;20.03;85.93
58072;BME280;60383;46.626;18.866;2023-06-24T00:23:56;100572.59;;;20.05;86.08
58072;BME280;60383;46.626;18.866;2023-06-24T00:26:21;100566.84;;;20.06;86.02
58072;BME280;60383;46.626;18.866;2023-06-24T00:28:47;100557.84;;;20.04;84.53
58072;BME280;60383;46.626;18.866;2023-06-24T00:31:12;100570.91;;;20.04;84.87
58072;BME280;60383;46.626;18.866;2023-06-24T00:33:38;100578.00;;;19.93;84.85
58072;BME280;60383;46.626;18.866;2023-06-24T00:36:03;100599.78;;;20.03;86.39
58072;BME280;60383;46.626;18.866;2023-06-24T00:38:29;100617.97;;;19.92;85.58
58072;BME280;60383;46.626;18.866;2023-06-24T00:40:58;100627.56;;;20.03;85.84
58072;BME280;60383;46.626;18.866;2023-06-24T00:43:24;100629.28;;;20.17;86.14
58072;BME280;60383;46.626;18.866;2023-06-24T00:45:50;100619.44;;;20.15;85.35
58072;BME280;60383;46.626;18.866;2023-06-24T00:48:16;100623.47;;;20.25;84.52
58072;BME280;60383;46.626;18.866;2023-06-24T00:50:41;100623.72;;;20.10;84.63
58072;BME280;60383;46.626;18.866;2023-06-24T00:53:11;100618.34;;;20.16;85.93
58072;BME280;60383;46.626;18.866;2023-06-24T00:55:37;100608.50;;;20.26;85.32
58072;BME280;60383;46.626;18.866;2023-06-24T00:58:03;100609.97;;;20.29;84.09
58072;BME280;60383;46.626;18.866;2023-06-24T01:00:29;100587.31;;;20.32;83.63
58072;BME280;60383;46.626;18.866;2023-06-24T01:02:58;100550.28;;;20.38;83.22
58072;BME280;60383;46.626;18.866;2023-06-24T01:05:24;100542.75;;;20.52;81.93
58072;BME280;60383;46.626;18.866;2023-06-24T01:07:51;100555.84;;;20.38;82.79
58072;BME280;60383;46.626;18.866;2023-06-24T01:10:21;100557.97;;;20.36;82.99
58072;BME280;60383;46.626;18.866;2023-06-24T01:12:47;100580.06;;;20.24;83.06
58072;BME280;60383;46.626;18.866;2023-06-24T01:15:13;100607.44;;;20.14;83.73
58072;BME280;60383;46.626;18.866;2023-06-24T01:18:02;100619.84;;;20.32;82.32
58072;BME280;60383;46.626;18.866;2023-06-24T01:26:29;100618.16;;;20.17;84.36
58072;BME280;60383;46.626;18.866;2023-06-24T01:31:33;100618.53;;;20.34;83.61
58072;BME280;60383;46.626;18.866;2023-06-24T01:34:10;100605.28;;;20.23;83.83
58072;BME280;60383;46.626;18.866;2023-06-24T01:36:40;100583.69;;;20.18;84.33
58072;BME280;60383;46.626;18.866;2023-06-24T01:39:11;100570.25;;;20.15;85.04
58072;BME280;60383;46.626;18.866;2023-06-24T01:41:44;100557.19;;;20.16;85.66
58072;BME280;60383;46.626;18.866;2023-06-24T01:44:13;100542.22;;;20.17;85.21
58072;BME280;60383;46.626;18.866;2023-06-24T01:46:41;100538.56;;;20.23;84.76
58072;BME280;60383;46.626;18.866;2023-06-24T01:49:12;100525.31;;;20.18;84.98
58072;BME280;60383;46.626;18.866;2023-06-24T01:51:38;100494.78;;;20.05;85.16
58072;BME280;60383;46.626;18.866;2023-06-24T01:54:11;100480.91;;;19.91;85.24
58072;BME280;60383;46.626;18.866;2023-06-24T01:56:39;100460.16;;;20.01;85.21
58072;BME280;60383;46.626;18.866;2023-06-24T01:59:08;100442.41;;;20.02;84.43
58072;BME280;60383;46.626;18.866;2023-06-24T02:01:35;100450.56;;;19.97;84.43
58072;BME280;60383;46.626;18.866;2023-06-24T02:04:04;100473.44;;;19.92;85.69
58072;BME280;60383;46.626;18.866;2023-06-24T02:06:33;100492.25;;;19.90;85.55
58072;BME280;60383;46.626;18.866;2023-06-24T02:09:01;100510.44;;;19.86;85.79
58072;BME280;60383;46.626;18.866;2023-06-24T02:11:28;100523.00;;;19.82;85.73
58072;BME280;60383;46.626;18.866;2023-06-24T02:13:55;100525.59;;;19.90;86.15
58072;BME280;60383;46.626;18.866;2023-06-24T02:16:22;100524.31;;;19.92;86.82
58072;BME280;60383;46.626;18.866;2023-06-24T02:18:48;100526.91;;;19.94;86.77
58072;BME280;60383;46.626;18.866;2023-06-24T02:21:16;100532.88;;;19.84;85.60
58072;BME280;60383;46.626;18.866;2023-06-24T02:23:43;100550.19;;;19.93;85.72
58072;BME280;60383;46.626;18.866;2023-06-24T02:26:10;100549.94;;;20.01;84.13
58072;BME280;60383;46.626;18.866;2023-06-24T02:28:37;100554.25;;;20.04;84.77
58072;BME280;60383;46.626;18.866;2023-06-24T02:31:04;100563.44;;;19.91;85.96
58072;BME280;60383;46.626;18.866;2023-06-24T02:33:30;100573.25;;;20.14;84.06
58072;BME280;60383;46.626;18.866;2023-06-24T02:35:56;100595.28;;;19.95;84.88
58072;BME280;60383;46.626;18.866;2023-06-24T02:38:21;100603.88;;;19.87;84.55
58072;BME280;60383;46.626;18.866;2023-06-24T02:40:47;100607.28;;;19.95;83.84
58072;BME280;60383;46.626;18.866;2023-06-24T02:43:14;100605.75;;;19.79;85.38
58072;BME280;60383;46.626;18.866;2023-06-24T02:45:40;100612.34;;;19.38;86.35
58072;BME280;60383;46.626;18.866;2023-06-24T02:48:08;100615.34;;;19.50;86.43
58072;BME280;60383;46.626;18.866;2023-06-24T02:50:34;100621.53;;;19.32;87.04
58072;BME280;60383;46.626;18.866;2023-06-24T02:53:02;100624.50;;;19.24;87.69
58072;BME280;60383;46.626;18.866;2023-06-24T02:55:28;100620.03;;;19.36;86.55
58072;BME280;60383;46.626;18.866;2023-06-24T02:57:55;100617.44;;;19.28;88.14
58072;BME280;60383;46.626;18.866;2023-06-24T03:00:21;100611.47;;;19.18;87.79
58072;BME280;60383;46.626;18.866;2023-06-24T03:02:47;100613.41;;;19.24;88.93
58072;BME280;60383;46.626;18.866;2023-06-24T03:05:15;100611.28;;;19.33;nan
58072;BME280;60383;46.626;18.866;2023-06-24T03:07:42;100602.53;;;19.49;88.98
58072;BME280;60383;46.626;18.866;2023-06-24T03:10:08;100594.84;;;19.44;87.74
58072;BME280;60383;46.626;18.866;2023-06-24T03:12:37;100606.16;;;19.50;87.56
58072;BME280;60383;46.626;18.866;2023-06-24T03:15:02;100598.69;;;19.50;87.59
58072;BME280;60383;46.626;18.866;2023-06-24T03:17:28;100602.34;;;19.64;88.44
58072;BME280;60383;46.626;18.866;2023-06-24T03:19:54;100611.31;;;19.53;86.93
58072;BME280;60383;46.626;18.866;2023-06-24T03:22:21;100615.13;;;19.58;86.34
58072;BME280;60383;46.626;18.866;2023-06-24T03:24:47;100623.69;;;19.43;86.13
58072;BME280;60383;46.626;18.866;2023-06-24T03:27:12;100636.31;;;19.53;86.92
58072;BME280;60383;46.626;18.866;2023-06-24T03:29:38;100636.31;;;19.66;87.04
58072;BME280;60383;46.626;18.866;2023-06-24T03:32:04;100647.66;;;19.71;88.05
58072;BME280;60383;46.626;18.866;2023-06-24T03:34:29;100639.72;;;19.55;86.60
58072;BME280;60383;46.626;18.866;2023-06-24T03:36:54;100629.31;;;19.90;84.62
58072;BME280;60383;46.626;18.866;2023-06-24T03:39:21;100644.44;;;20.01;82.85
58072;BME280;60383;46.626;18.866;2023-06-24T03:41:47;100640.63;;;19.95;83.80
58072;BME280;60383;46.626;18.866;2023-06-24T03:44:13;100642.13;;;19.98;83.06
58072;BME280;60383;46.626;18.866;2023-06-24T03:46:38;100641.03;;;20.06;82.29
58072;BME280;60383;46.626;18.866;2023-06-24T03:49:04;100648.31;;;20.14;81.74
58072;BME280;60383;46.626;18.866;2023-06-24T03:51:29;100641.47;;;20.03;82.02
58072;BME280;60383;46.626;18.866;2023-06-24T03:53:55;100641.66;;;20.21;81.96
58072;BME280;60383;46.626;18.866;2023-06-24T03:56:20;100644.19;;;20.36;81.52
58072;BME280;60383;46.626;18.866;2023-06-24T03:58:46;100647.16;;;20.55;79.87
58072;BME280;60383;46.626;18.866;2023-06-24T04:01:11;100669.03;;;20.38;79.27
58072;BME280;60383;46.626;18.866;2023-06-24T04:03:37;100669.84;;;20.52;79.65
58072;BME280;60383;46.626;18.866;2023-06-24T04:06:02;100670.72;;;20.52;78.71
58072;BME280;60383;46.626;18.866;2023-06-24T04:08:28;100680.72;;;20.67;77.71
58072;BME280;60383;46.626;18.866;2023-06-24T04:10:59;100685.22;;;20.74;77.71
58072;BME280;60383;46.626;18.866;2023-06-24T04:13:25;100686.72;;;20.64;76.93
58072;BME280;60383;46.626;18.866;2023-06-24T04:15:51;100694.84;;;20.65;77.43
58072;BME280;60383;46.626;18.866;2023-06-24T04:18:17;100690.16;;;20.66;77.95
58072;BME280;60383;46.626;18.866;2023-06-24T04:20:42;100695.72;;;20.72;77.51
58072;BME280;60383;46.626;18.866;2023-06-24T04:23:08;100698.69;;;20.64;76.72
58072;BME280;60383;46.626;18.866;2023-06-24T04:25:36;100714.16;;;20.26;77.83
58072;BME280;60383;46.626;18.866;2023-06-24T04:28:02;100717.13;;;20.58;77.30
58072;BME280;60383;46.626;18.866;2023-06-24T04:30:28;100703.44;;;20.43;77.48
58072;BME280;60383;46.626;18.866;2023-06-24T04:32:53;100710.06;;;20.42;77.90
58072;BME280;60383;46.626;18.866;2023-06-24T04:35:19;100703.88;;;20.54;79.16
58072;BME280;60383;46.626;18.866;2023-06-24T04:37:44;100706.88;;;20.52;77.63
58072;BME280;60383;46.626;18.866;2023-06-24T04:40:10;100697.66;;;20.58;78.03
58072;BME280;60383;46.626;18.866;2023-06-24T04:42:35;100698.28;;;20.67;76.15
58072;BME280;60383;46.626;18.866;2023-06-24T04:45:01;100696.59;;;20.46;77.70
58072;BME280;60383;46.626;18.866;2023-06-24T04:47:30;100698.28;;;20.61;75.58
58072;BME280;60383;46.626;18.866;2023-06-24T04:49:56;100704.75;;;20.48;76.45
58072;BME280;60383;46.626;18.866;2023-06-24T04:52:23;100725.06;;;20.55;76.00
58072;BME280;60383;46.626;18.866;2023-06-24T04:54:49;100724.41;;;20.46;75.93
58072;BME280;60383;46.626;18.866;2023-06-24T04:57:44;100714.78;;;20.42;76.72
58072;BME280;60383;46.626;18.866;2023-06-24T05:00:09;100715.00;;;20.54;75.16
58072;BME280;60383;46.626;18.866;2023-06-24T05:02:35;100722.47;;;20.73;75.57
58072;BME280;60383;46.626;18.866;2023-06-24T05:05:01;100723.88;;;21.10;72.78
58072;BME280;60383;46.626;18.866;2023-06-24T05:07:26;100728.31;;;21.24;74.18
58072;BME280;60383;46.626;18.866;2023-06-24T05:09:53;100729.97;;;21.32;71.87
58072;BME280;60383;46.626;18.866;2023-06-24T05:12:18;100722.41;;;21.46;71.35
58072;BME280;60383;46.626;18.866;2023-06-24T05:14:43;100738.00;;;21.53;70.09
58072;BME280;60383;46.626;18.866;2023-06-24T05:17:09;100725.28;;;21.71;69.83
58072;BME280;60383;46.626;18.866;2023-06-24T05:19:34;100719.28;;;21.74;68.26
58072;BME280;60383;46.626;18.866;2023-06-24T05:22:00;100721.88;;;21.69;69.96
58072;BME280;60383;46.626;18.866;2023-06-24T05:24:25;100717.91;;;21.83;67.43
58072;BME280;60383;46.626;18.866;2023-06-24T05:26:51;100714.81;;;21.66;69.00
58072;BME280;60383;46.626;18.866;2023-06-24T05:29:17;100714.81;;;21.66;69.96
58072;BME280;60383;46.626;18.866;2023-06-24T05:31:46;100713.28;;;21.70;69.84
58072;BME280;60383;46.626;18.866;2023-06-24T05:34:11;100708.75;;;21.76;68.43
58072;BME280;60383;46.626;18.866;2023-06-24T05:36:37;100713.19;;;21.84;67.60
58072;BME280;60383;46.626;18.866;2023-06-24T05:39:02;100706.66;;;21.72;68.62
58072;BME280;60383;46.626;18.866;2023-06-24T05:41:28;100713.13;;;21.65;68.79
58072;BME280;60383;46.626;18.866;2023-06-24T05:44:04;100716.66;;;21.79;68.93
58072;BME280;60383;46.626;18.866;2023-06-24T05:46:30;100712.94;;;21.92;67.73
58072;BME280;60383;46.626;18.866;2023-06-24T05:48:56;100698.88;;;22.06;67.96
58072;BME280;60383;46.626;18.866;2023-06-24T05:51:21;100707.81;;;22.14;66.54
58072;BME280;60383;46.626;18.866;2023-06-24T05:53:47;100703.16;;;22.33;66.32
58072;BME280;60383;46.626;18.866;2023-06-24T05:56:12;100691.50;;;22.37;66.56
58072;BME280;60383;46.626;18.866;2023-06-24T05:58:38;100691.69;;;22.42;67.31
58072;BME280;60383;46.626;18.866;2023-06-24T06:01:03;100686.22;;;22.54;65.39
58072;BME280;60383;46.626;18.866;2023-06-24T06:03:28;100676.94;;;22.34;67.27
58072;BME280;60383;46.626;18.866;2023-06-24T06:05:54;100675.31;;;22.52;66.61
58072;BME280;60383;46.626;18.866;2023-06-24T06:08:19;100677.16;;;22.58;65.78
58072;BME280;60383;46.626;18.866;2023-06-24T06:10:45;100669.31;;;22.48;65.95
58072;BME280;60383;46.626;18.866;2023-06-24T06:13:10;100666.00;;;22.58;65.22
58072;BME280;60383;46.626;18.866;2023-06-24T06:15:36;100664.91;;;22.59;65.03
58072;BME280;60383;46.626;18.866;2023-06-24T06:18:01;100662.81;;;22.55;66.16
58072;BME280;60383;46.626;18.866;2023-06-24T06:20:26;100668.34;;;22.36;65.74
58072;BME280;60383;46.626;18.866;2023-06-24T06:22:52;100660.44;;;22.33;66.47
58072;BME280;60383;46.626;18.866;2023-06-24T06:25:17;100666.44;;;22.55;67.21
58072;BME280;60383;46.626;18.866;2023-06-24T06:27:43;100662.28;;;22.83;64.93
58072;BME280;60383;46.626;18.866;2023-06-24T06:30:09;100665.78;;;22.78;64.77
58072;BME280;60383;46.626;18.866;2023-06-24T06:32:34;100669.63;;;22.59;63.74
58072;BME280;60383;46.626;18.866;2023-06-24T06:35:00;100662.44;;;22.88;63.66
58072;BME280;60383;46.626;18.866;2023-06-24T06:37:25;100664.38;;;22.88;63.07
58072;BME280;60383;46.626;18.866;2023-06-24T06:39:51;100667.25;;;22.81;64.53
58072;BME280;60383;46.626;18.866;2023-06-24T06:42:16;100679.03;;;22.83;63.12
58072;BME280;60383;46.626;18.866;2023-06-24T06:44:42;100678.84;;;22.96;63.31
58072;BME280;60383;46.626;18.866;2023-06-24T06:47:07;100690.81;;;22.67;63.53
58072;BME280;60383;46.626;18.866;2023-06-24T06:49:33;100684.38;;;23.03;62.91
58072;BME280;60383;46.626;18.866;2023-06-24T06:51:58;100687.69;;;23.12;62.60
58072;BME280;60383;46.626;18.866;2023-06-24T06:54:24;100695.78;;;23.20;62.84
58072;BME280;60383;46.626;18.866;2023-06-24T06:56:49;100694.84;;;23.26;61.74
58072;BME280;60383;46.626;18.866;2023-06-24T06:59:14;100701.50;;;23.44;63.60
58072;BME280;60383;46.626;18.866;2023-06-24T07:01:40;100697.81;;;23.74;61.15
58072;BME280;60383;46.626;18.866;2023-06-24T07:04:05;100698.94;;;23.85;61.56
58072;BME280;60383;46.626;18.866;2023-06-24T07:06:31;100707.97;;;23.87;60.90
58072;BME280;60383;46.626;18.866;2023-06-24T07:08:58;100716.25;;;23.93;61.49
58072;BME280;60383;46.626;18.866;2023-06-24T07:11:23;100714.50;;;23.81;60.07
58072;BME280;60383;46.626;18.866;2023-06-24T07:13:49;100715.63;;;23.91;59.43
58072;BME280;60383;46.626;18.866;2023-06-24T07:16:17;100730.41;;;23.99;59.64
58072;BME280;60383;46.626;18.866;2023-06-24T07:18:42;100730.31;;;23.87;60.58
58072;BME280;60383;46.626;18.866;2023-06-24T07:21:07;100731.88;;;23.83;60.10
58072;BME280;60383;46.626;18.866;2023-06-24T07:23:33;100726.19;;;23.89;60.48
58072;BME280;60383;46.626;18.866;2023-06-24T07:25:58;100722.00;;;24.11;60.95
58072;BME280;60383;46.626;18.866;2023-06-24T07:28:24;100725.56;;;24.06;60.07
58072;BME280;60383;46.626;18.866;2023-06-24T07:30:49;100723.97;;;24.34;59.36
58072;BME280;60383;46.626;18.866;2023-06-24T07:33:15;100718.00;;;24.30;59.38
58072;BME280;60383;46.626;18.866;2023-06-24T07:35:40;100729.47;;;24.29;59.29
58072;BME280;60383;46.626;18.866;2023-06-24T07:38:06;100717.56;;;24.45;61.22
58072;BME280;60383;46.626;18.866;2023-06-24T07:40:31;100725.34;;;24.55;59.10
58072;BME280;60383;46.626;18.866;2023-06-24T07:42:57;100728.03;;;24.50;58.80
58072;BME280;60383;46.626;18.866;2023-06-24T07:45:22;100738.47;;;24.31;57.80
58072;BME280;60383;46.626;18.866;2023-06-24T07:47:48;100738.00;;;23.91;59.90
58072;BME280;60383;46.626;18.866;2023-06-24T07:50:14;100736.72;;;23.75;61.91
58072;BME280;60383;46.626;18.866;2023-06-24T07:52:39;100728.78;;;23.60;62.41
58072;BME280;60383;46.626;18.866;2023-06-24T07:55:05;100726.50;;;23.69;63.17
58072;BME280;60383;46.626;18.866;2023-06-24T07:57:31;100724.22;;;23.78;61.46
58072;BME280;60383;46.626;18.866;2023-06-24T07:59:56;100723.44;;;23.59;61.11
58072;BME280;60383;46.626;18.866;2023-06-24T08:02:22;100720.50;;;23.35;62.97
58072;BME280;60383;46.626;18.866;2023-06-24T08:04:49;100724.38;;;23.16;62.91
58072;BME280;60383;46.626;18.866;2023-06-24T08:07:15;100730.84;;;23.35;62.08
58072;BME280;60383;46.626;18.866;2023-06-24T08:09:41;100736.75;;;23.26;62.30
58072;BME280;60383;46.626;18.866;2023-06-24T08:12:06;100733.25;;;23.31;63.79
58072;BME280;60383;46.626;18.866;2023-06-24T08:14:32;100736.56;;;23.40;62.92
58072;BME280;60383;46.626;18.866;2023-06-24T08:16:58;100739.50;;;23.45;62.41
58072;BME280;60383;46.626;18.866;2023-06-24T08:19:23;100746.78;;;23.65;63.05
58072;BME280;60383;46.626;18.866;2023-06-24T08:21:49;100742.03;;;23.65;64.54
58072;BME280;60383;46.626;18.866;2023-06-24T08:24:14;100739.88;;;23.79;62.75
58072;BME280;60383;46.626;18.866;2023-06-24T08:26:40;100744.38;;;24.11;63.59
58072;BME280;60383;46.626;18.866;2023-06-24T08:29:05;100734.94;;;24.47;62.41
58072;BME280;60383;46.626;18.866;2023-06-24T08:31:32;100737.66;;;24.78;62.14
58072;BME280;60383;46.626;18.866;2023-06-24T08:34:01;100733.63;;;24.97;61.11
58072;BME280;60383;46.626;18.866;2023-06-24T08:36:31;100724.75;;;25.29;59.08
58072;BME280;60383;46.626;18.866;2023-06-24T08:38:57;100713.28;;;25.31;58.90
58072;BME280;60383;46.626;18.866;2023-06-24T08:41:23;100717.53;;;25.33;58.04
58072;BME280;60383;46.626;18.866;2023-06-24T08:43:50;100720.97;;;25.47;57.11
58072;BME280;60383;46.626;18.866;2023-06-24T08:46:16;100728.72;;;25.57;55.81
58072;BME280;60383;46.626;18.866;2023-06-24T08:48:45;100714.94;;;25.56;57.22
58072;BME280;60383;46.626;18.866;2023-06-24T08:51:11;100718.19;;;25.64;55.76
58072;BME280;60383;46.626;18.866;2023-06-24T08:53:41;100723.00;;;25.52;57.73
58072;BME280;60383;46.626;18.866;2023-06-24T08:56:08;100710.78;;;25.87;57.77
58072;BME280;60383;46.626;18.866;2023-06-24T08:58:34;100717.63;;;25.79;57.61
58072;BME280;60383;46.626;18.866;2023-06-24T09:01:00;100718.50;;;25.97;56.14
58072;BME280;60383;46.626;18.866;2023-06-24T09:03:26;100715.09;;;25.78;56.91
58072;BME280;60383;46.626;18.866;2023-06-24T09:05:52;100717.59;;;25.62;55.97
58072;BME280;60383;46.626;18.866;2023-06-24T09:08:17;100709.69;;;25.59;56.25
58072;BME280;60383;46.626;18.866;2023-06-24T09:10:43;100706.06;;;25.76;57.62
58072;BME280;60383;46.626;18.866;2023-06-24T09:13:09;100701.06;;;25.95;57.58
58072;BME280;60383;46.626;18.866;2023-06-24T09:15:35;100712.41;;;26.17;56.89
58072;BME280;60383;46.626;18.866;2023-06-24T09:18:03;100712.84;;;26.43;55.50
58072;BME280;60383;46.626;18.866;2023-06-24T09:20:30;100724.50;;;26.18;54.36
58072;BME280;60383;46.626;18.866;2023-06-24T09:23:01;100729.03;;;25.90;56.93
58072;BME280;60383;46.626;18.866;2023-06-24T09:25:27;100727.16;;;25.49;56.97
58072;BME280;60383;46.626;18.866;2023-06-24T09:27:53;100733.31;;;25.23;57.13
58072;BME280;60383;46.626;18.866;2023-06-24T09:30:24;100735.47;;;25.44;56.41
58072;BME280;60383;46.626;18.866;2023-06-24T09:32:53;100744.41;;;25.17;57.61
58072;BME280;60383;46.626;18.866;2023-06-24T09:35:21;100750.63;;;25.19;57.25
58072;BME280;60383;46.626;18.866;2023-06-24T09:37:54;100756.84;;;25.10;58.89
58072;BME280;60383;46.626;18.866;2023-06-24T09:40:21;100756.75;;;24.57;59.04
58072;BME280;60383;46.626;18.866;2023-06-24T09:42:55;100754.69;;;24.52;59.49
58072;BME280;60383;46.626;18.866;2023-06-24T09:45:26;100761.72;;;24.43;59.50
58072;BME280;60383;46.626;18.866;2023-06-24T09:47:53;100757.09;;;24.37;60.42
58072;BME280;60383;46.626;18.866;2023-06-24T09:50:19;100757.84;;;24.44;61.00
58072;BME280;60383;46.626;18.866;2023-06-24T09:52:45;100748.91;;;23.81;61.05
58072;BME280;60383;46.626;18.866;2023-06-24T09:55:15;100739.09;;;23.90;62.61
58072;BME280;60383;46.626;18.866;2023-06-24T09:57:46;100737.84;;;23.74;61.87
58072;BME280;60383;46.626;18.866;2023-06-24T10:00:17;100725.94;;;23.91;62.02
58072;BME280;60383;46.626;18.866;2023-06-24T10:02:44;100725.31;;;23.77;62.44
58072;BME280;60383;46.626;18.866;2023-06-24T10:05:12;100717.44;;;23.86;62.58
58072;BME280;60383;46.626;18.866;2023-06-24T10:07:39;100716.94;;;24.19;62.85
58072;BME280;60383;46.626;18.866;2023-06-24T10:10:05;100704.41;;;24.22;63.78
58072;BME280;60383;46.626;18.866;2023-06-24T10:12:31;100706.94;;;24.12;64.60
58072;BME280;60383;46.626;18.866;2023-06-24T10:14:58;100706.94;;;24.23;64.11
58072;BME280;60383;46.626;18.866;2023-06-24T10:17:24;100702.09;;;24.43;63.47
58072;BME280;60383;46.626;18.866;2023-06-24T10:19:51;100692.72;;;24.61;63.65
58072;BME280;60383;46.626;18.866;2023-06-24T10:22:21;100686.50;;;24.82;65.03
58072;BME280;60383;46.626;18.866;2023-06-24T10:24:47;100683.81;;;25.28;64.04
58072;BME280;60383;46.626;18.866;2023-06-24T10:27:17;100702.94;;;25.89;60.30
58072;BME280;60383;46.626;18.866;2023-06-24T10:29:50;100703.72;;;26.02;59.19
58072;BME280;60383;46.626;18.866;2023-06-24T10:32:17;100696.00;;;26.60;57.13
58072;BME280;60383;46.626;18.866;2023-06-24T10:34:44;100696.56;;;26.62;56.02
58072;BME280;60383;46.626;18.866;2023-06-24T10:39:53;100705.19;;;26.38;56.49
58072;BME280;60383;46.626;18.866;2023-06-24T10:45:19;100697.75;;;26.66;55.59
58072;BME280;60383;46.626;18.866;2023-06-24T10:47:45;100692.41;;;27.04;56.00
58072;BME280;60383;46.626;18.866;2023-06-24T10:50:13;100697.22;;;26.13;56.73
58072;BME280;60383;46.626;18.866;2023-06-24T10:52:43;100703.84;;;26.07;56.99
58072;BME280;60383;46.626;18.866;2023-06-24T10:55:10;100709.38;;;26.19;56.30
58072;BME280;60383;46.626;18.866;2023-06-24T10:57:36;100702.59;;;26.03;55.62
58072;BME280;60383;46.626;18.866;2023-06-24T11:00:03;100710.31;;;25.78;56.31
58072;BME280;60383;46.626;18.866;2023-06-24T11:02:28;100700.50;;;25.35;56.36
58072;BME280;60383;46.626;18.866;2023-06-24T11:04:59;100692.66;;;25.37;56.03
58072;BME280;60383;46.626;18.866;2023-06-24T11:07:27;100685.25;;;25.31;57.99
58072;BME280;60383;46.626;18.866;2023-06-24T11:09:54;100671.00;;;25.03;57.92
58072;BME280;60383;46.626;18.866;2023-06-24T11:12:24;100668.47;;;24.90;59.21
58072;BME280;60383;46.626;18.866;2023-06-24T11:14:51;100672.72;;;24.93;60.89
58072;BME280;60383;46.626;18.866;2023-06-24T11:17:16;100661.78;;;24.91;59.80
58072;BME280;60383;46.626;18.866;2023-06-24T11:19:42;100648.50;;;24.98;58.27
58072;BME280;60383;46.626;18.866;2023-06-24T11:22:09;100631.56;;;24.93;58.79
58072;BME280;60383;46.626;18.866;2023-06-24T11:24:35;100609.78;;;24.83;59.54
58072;BME280;60383;46.626;18.866;2023-06-24T11:27:01;100607.88;;;24.72;59.57
58072;BME280;60383;46.626;18.866;2023-06-24T11:29:31;100621.59;;;24.85;60.26
58072;BME280;60383;46.626;18.866;2023-06-24T11:31:58;100632.81;;;24.85;61.42
58072;BME280;60383;46.626;18.866;2023-06-24T11:34:24;100637.31;;;24.86;60.68
58072;BME280;60383;46.626;18.866;2023-06-24T11:36:49;100643.03;;;24.80;59.84
58072;BME280;60383;46.626;18.866;2023-06-24T11:39:23;100635.41;;;25.04;59.37
58072;BME280;60383;46.626;18.866;2023-06-24T11:41:49;100629.91;;;25.09;59.54
58072;BME280;60383;46.626;18.866;2023-06-24T11:44:14;100635.84;;;25.54;58.30
58072;BME280;60383;46.626;18.866;2023-06-24T11:46:40;100636.34;;;25.67;59.19
58072;BME280;60383;46.626;18.866;2023-06-24T11:49:07;100643.44;;;26.04;57.26
58072;BME280;60383;46.626;18.866;2023-06-24T11:51:33;100640.88;;;26.37;56.25
58072;BME280;60383;46.626;18.866;2023-06-24T11:54:01;100643.31;;;26.50;55.76
58072;BME280;60383;46.626;18.866;2023-06-24T11:56:41;100643.25;;;26.67;54.46
58072;BME280;60383;46.626;18.866;2023-06-24T11:59:14;100645.06;;;27.18;54.79
58072;BME280;60383;46.626;18.866;2023-06-24T12:01:43;100655.03;;;27.53;56.89
58072;BME280;60383;46.626;18.866;2023-06-24T12:04:17;100640.38;;;27.51;53.26
58072;BME280;60383;46.626;18.866;2023-06-24T12:06:43;100635.75;;;27.39;51.97
58072;BME280;60383;46.626;18.866;2023-06-24T12:09:10;100637.50;;;27.46;51.14
58072;BME280;60383;46.626;18.866;2023-06-24T12:11:36;100639.31;;;27.57;50.72
58072;BME280;60383;46.626;18.866;2023-06-24T12:14:01;100633.72;;;27.35;52.52
58072;BME280;60383;46.626;18.866;2023-06-24T12:16:27;100635.25;;;27.20;53.07
58072;BME280;60383;46.626;18.866;2023-06-24T12:18:53;100629.72;;;27.03;52.67
58072;BME280;60383;46.626;18.866;2023-06-24T12:21:19;100632.16;;;27.44;52.41
58072;BME280;60383;46.626;18.866;2023-06-24T12:23:44;100625.19;;;27.52;52.04
58072;BME280;60383;46.626;18.866;2023-06-24T12:26:10;100632.94;;;27.39;51.86
58072;BME280;60383;46.626;18.866;2023-06-24T12:28:36;100632.00;;;27.56;51.65
58072;BME280;60383;46.626;18.866;2023-06-24T12:31:01;100631.72;;;27.57;50.88
58072;BME280;60383;46.626;18.866;2023-06-24T12:33:27;100633.59;;;27.47;51.80
58072;BME280;60383;46.626;18.866;2023-06-24T12:35:52;100649.34;;;27.25;51.76
58072;BME280;60383;46.626;18.866;2023-06-24T12:38:18;100637.19;;;27.42;51.13
58072;BME280;60383;46.626;18.866;2023-06-24T12:40:43;100638.28;;;26.91;53.41
58072;BME280;60383;46.626;18.866;2023-06-24T12:43:10;100651.09;;;27.04;51.91
58072;BME280;60383;46.626;18.866;2023-06-24T12:45:36;100648.03;;;26.44;53.21
58072;BME280;60383;46.626;18.866;2023-06-24T12:48:02;100652.13;;;26.98;53.31
58072;BME280;60383;46.626;18.866;2023-06-24T12:50:28;100651.63;;;26.62;54.30
58072;BME280;60383;46.626;18.866;2023-06-24T12:52:53;100660.63;;;26.81;52.57